Milford, Utah Weather observations

Data are for observation ending at time listed.
 Day   Time    Ave.   Ave.  Ave.  Vector   Max.   Stn.    Total    Solar   Ave.  
  of    of     Air    Rel.  Wind   Wind    Wind   Baro.  Precip.   Rad.    Soil  
Year   Day     Temp.  Hum.  Speed  Dir.    Gust   Pres.                    Temp. 
2020   (MST)    F      %     mph   deg.    mph     mb.     in.     W/m2     F   
------------------------------------------------------------------------------
 152   11:40   82.3    14    9.3   183     20.9   847.7    0.00     704    71.5
 152   11:50   82.3    14    9.4   181     18.3   847.7    0.00     675    71.7
 152   12:00   82.2    14    9.1   185     18.0   847.7    0.00     647    71.6
 152   12:10   81.9    13   10.5   182     25.3   847.7    0.00     723    71.5
 152   12:20   82.7    13   11.8   180     24.0   847.6    0.00     876    71.5
 152   12:30   83.4    13   11.9   177     24.5   847.5    0.00     955    71.5
 152   12:40   83.6    13   11.9   178     23.4   847.5    0.00     926    71.4
 152   12:50   83.8    14   10.4   180     25.9   847.5    0.00     913    71.6
 152   13:00   83.8    13   10.8   182     19.6   847.4    0.00     918    71.5
 152   13:10   84.3    13   10.9   178     21.5   847.4    0.00     895    71.5
 152   13:20   84.6    13   10.2   183     22.3   847.4    0.00     907    71.6
 152   13:30   84.9    13    8.3   185     18.3   847.4    0.00     892    71.8
 152   13:40   85.1    12    7.9   191     16.4   847.3    0.00     894    71.7
 152   13:50   85.1    12   11.2   179     25.3   847.3    0.00     882    71.6
 152   14:00   84.4    13   12.0   178     24.2   847.3    0.00     845    71.5
 152   14:10   85.3    13    8.6   180     18.9   847.1    0.00     833    71.6
 152   14:20   85.4    13    9.7   176     23.8   847.0    0.00     686    71.7
 152   14:30   84.1    14   10.5   181     23.5   847.0    0.00     555    71.7
 152   14:40   83.4    14   10.8   177     22.4   847.0    0.00     508    71.7
 152   14:50   82.3    14    9.4   178     21.7   846.9    0.00     345    71.7
 152   15:00   84.3    13    9.5   177     20.9   846.6    0.00     859    71.9
 152   15:10   85.3    12   10.1   184     27.4   846.5    0.00     795    71.9
 152   15:20   85.0    11   12.0   181     22.8   846.4    0.00     583    71.9
 152   15:30   84.3    12   10.5   181     22.9   846.4    0.00     590    71.9
 152   15:40   85.3    12    7.3   192     17.0   846.2    0.00     687    71.9
 152   15:50   85.5    12    7.9   189     26.2   846.1    0.00     709    72.1
 152   16:00   85.6    12    7.0   190     19.4   846.0    0.00     692    72.1
 152   16:10   85.1    12    7.2   184     18.8   846.1    0.00     636    72.1
 152   16:20   84.8    13    6.2   192     19.0   846.0    0.00     596    72.0
 152   16:30   83.7    13    3.8   214     12.4   846.0    0.00     287    72.1
 152   16:40   82.6    14    3.6   206      8.8   845.8    0.00     446    72.0
 152   16:50   83.8    13    4.9   191     14.4   845.7    0.00     285    72.2
 152   17:00   83.1    13    4.8   196     11.5   845.5    0.00     166    72.2
 152   17:10   83.1    12    5.6   190     12.4   845.4    0.00     173    72.0
 152   17:20   82.2    12    4.6   207     10.7   845.4    0.00     149    72.2
 152   17:30   81.6    12    4.6   209     10.4   845.3    0.00     134    72.1
 152   17:40   81.6    12    4.3   200      9.7   845.3    0.00     134    72.2
 152   17:50   81.5    12    4.4   207     14.2   845.3    0.00     131    72.4
 152   18:00   81.3    13    3.7   209     10.3   845.1    0.00     103    72.2
 152   18:10   81.1    13    3.6   208      9.1   845.1    0.00      90    72.0
 152   18:20   80.3    13    3.3   213     12.4   845.1    0.00      72    72.2
 152   18:30   79.8    13    3.4   211      9.5   845.2    0.00      62    72.2
 152   18:40   79.2    13    3.2   203      8.4   845.2    0.00      48    72.2
 152   18:50   78.7    14    3.5   207      9.7   845.2    0.00      39    72.2
 152   19:00   78.5    14    3.0   205      9.9   845.2    0.00      27    72.2
 152   19:10   78.0    14    2.3   207      7.0   845.3    0.00      25    72.2
 152   19:20   77.7    14    3.0   201      9.4   845.3    0.00      19    72.2
 152   19:30   77.6    14    3.0   204      9.3   845.3    0.00      11    72.1
 152   19:40   77.0    14    2.5   214     13.2   845.3    0.00       6    71.8
 152   19:50   76.4    14    2.9   201      6.1   845.4    0.00       1    71.9
 152   20:00   76.0    14    3.0   196      6.6   845.4    0.00       0    71.9
 152   20:10   75.6    14    3.1   186      6.1   845.5    0.00       0    71.8
 152   20:20   74.6    16    2.5   185      4.8   845.5    0.00       0    71.8
 152   20:30   73.0    18    2.8   180      4.7   845.6    0.00       0    71.9
 152   20:40   71.0    22    3.4   165      6.6   845.7    0.00       0    71.8
 152   20:50   67.5    28    1.8   208      3.7   845.7    0.00       0    71.7
 152   21:00   67.2    28    1.9   197      7.6   845.7    0.00       0    71.7
 152   21:10   67.9    26    3.2   184      7.5   845.7    0.00       0    71.7
 152   21:20   67.5    26    2.3   193      6.7   845.8    0.00       0    71.5
 152   21:30   67.6    25    2.2   188      3.9   845.8    0.00       0    71.5
 152   21:40   67.9    25    1.9   199      5.0   845.9    0.00       0    71.5
 152   21:50   67.3    26    1.6   214      3.8   846.0    0.00       0    71.4
 152   22:00   67.0    27    2.1   218      6.7   846.0    0.00       0    71.3
 152   22:10   66.6    28    1.5   216      2.7   846.0    0.00       0    71.3
 152   22:20   66.3    27    1.9   201      3.4   845.9    0.00       0    71.4
 152   22:30   66.3    27    2.3   200      4.7   845.9    0.00       0    71.1
 152   22:40   68.0    23    2.7   196      5.0   845.8    0.00       0    71.1
 152   22:50   67.9    23    2.4   195      4.7   845.9    0.00       0    71.0
 152   23:00   67.2    23    2.7   192      4.5   846.0    0.00       0    71.0
 152   23:10   66.6    24    2.6   192      4.1   845.9    0.00       0    70.9
 152   23:20   66.8    23    2.7   195      4.5   845.9    0.00       0    70.8
 152   23:30   66.5    24    2.2   203      3.9   845.9    0.00       0    70.8
 152   23:40   66.1    24    2.0   203      4.0   846.0    0.00       0    70.7
 152   23:50   66.0    24    2.2   203      4.9   846.1    0.00       0    70.5
 153    0:00   65.8    24    2.1   203      4.5   846.1    0.00       0    70.6
 153    0:10   65.6    24    2.0   226      4.5   846.0    0.00       0    70.4
 153    0:20   65.8    25    1.7   222      3.8   846.0    0.00       0    70.5
 153    0:30   65.5    25    2.0   203      4.1   846.0    0.00       0    70.2
 153    0:40   64.1    26    2.0   209      4.2   846.1    0.00       0    70.4
 153    0:50   63.6    26    2.0   220      3.8   846.0    0.00       0    70.2
 153    1:00   63.1    28    2.1   198      3.9   846.0    0.00       0    70.1
 153    1:10   62.1    29    2.2   206      4.2   845.9    0.00       0    70.2
 153    1:20   61.7    29    1.8   208      3.1   845.9    0.00       0    70.0
 153    1:30   61.8    29    1.2   239      3.2   845.8    0.00       0    70.0
 153    1:40   62.3    27    2.3   245      4.7   845.7    0.00       0    69.9
 153    1:50   61.7    28    2.1   234      3.9   845.7    0.00       0    69.7
 153    2:00   60.0    31    2.3   220      5.8   845.7    0.00       0    69.8
 153    2:10   59.5    32    1.8   200      3.7   845.7    0.00       0    69.7
 153    2:20   60.3    31    2.3   229      4.6   845.5    0.00       0    69.6
 153    2:30   61.0    30    1.8   217      4.6   845.5    0.00       0    69.5
 153    2:40   61.6    28    1.5   213      4.0   845.5    0.00       0    69.5
 153    2:50   61.6    28    1.4   239      2.9   845.5    0.00       0    69.3
 153    3:00   60.6    29    1.5   217      4.5   845.4    0.00       0    69.3
 153    3:10   60.3    28    1.5   248      2.7   845.4    0.00       0    69.3
 153    3:20   60.0    29    1.6   242      3.5   845.4    0.00       0    69.2
 153    3:30   59.8    29    2.1   231      5.3   845.4    0.00       0    69.2
 153    3:40   59.3    30    2.0   227      4.2   845.4    0.00       0    69.2
 153    3:50   58.8    30    1.8   220      3.6   845.3    0.00       0    69.0
 153    4:00   58.5    30    2.0   219      4.7   845.3    0.00       0    69.0
 153    4:10   58.2    31    2.2   227      4.0   845.3    0.00       0    69.0
 153    4:20   57.1    32    2.4   235      4.0   845.4    0.00       0    68.9
 153    4:30   54.9    34    2.5   247      4.5   845.4    0.00       0    68.7
 153    4:40   56.1    31    1.9   248      3.1   845.4    0.00       0    68.7
 153    4:50   58.2    30    2.1   240      3.7   845.5    0.00       0    68.6
 153    5:00   58.6    29    2.3   252      4.0   845.6    0.00       0    68.5
 153    5:10   58.2    30    2.0   236      4.1   845.8    0.00       0    68.5
 153    5:20   57.6    31    2.4   239      4.0   845.9    0.00       4    68.5
 153    5:30   56.4    32    2.0   246      4.2   846.0    0.00       8    68.3
 153    5:40   56.0    33    2.1   236      3.7   846.2    0.00      31    68.3
 153    5:50   57.7    32    2.1   240      3.6   846.2    0.00      70    68.1
 153    6:00   58.6    31    2.1   245      4.2   846.3    0.00      99    68.0
 153    6:10   59.0    32    2.2   234      4.1   846.5    0.00     115    68.0
 153    6:20   59.8    31    2.5   242      5.9   846.7    0.00     160    67.8
 153    6:30   60.2    31    2.6   249      4.2   846.9    0.00     199    67.8
 153    6:40   61.4    30    2.5   247      4.5   847.1    0.00     214    67.8
 153    6:50   62.9    29    2.3   250      5.6   847.4    0.00     240    67.7
 153    7:00   64.8    28    2.0   250      4.2   847.5    0.00     270    67.5
 153    7:10   66.6    28    1.6   226      3.4   847.7    0.00     320    67.5
 153    7:20   67.6    28    1.7   221      3.8   848.0    0.00     353    67.5
 153    7:30   68.6    27    1.6   223      5.0   848.2    0.00     385    67.3
 153    7:40   70.0    25    1.8   223      4.2   848.4    0.00     414    67.6
 153    7:50   70.6    24    2.9   181      6.1   848.6    0.00     443    67.3
 153    8:00   71.6    24    2.8   190      5.8   848.8    0.00     471    67.2
 153    8:10   70.2    27    3.2   176      7.5   848.9    0.00     500    67.1
 153    8:20   69.5    30    2.6   178      6.5   848.5    0.00     528    67.1
 153    8:30   70.9    27    4.9   165      8.7   848.1    0.00     557    66.5
 153    8:40   72.2    26    4.0   175     11.2   847.7    0.00     586    67.0
 153    8:50   72.5    24    4.7   180     10.0   847.6    0.00     613    68.1
 153    9:00   73.1    24    5.1   176     11.7   847.4    0.00     635    69.5
 153    9:10   75.1    23    4.7   180      9.6   847.4    0.00     662    70.2
 153    9:20   77.4    19    5.7   186     13.7   847.6    0.00     671    70.1
 153    9:30   77.6    19    5.9   180     16.2   848.2    0.00     692    69.9
 153    9:40   78.0    19    5.1   185     13.7   848.6    0.00     707    69.7
 153    9:50   78.4    19    5.0   183     10.7   849.0    0.00     725    69.4
 153   10:00   79.0    18    5.6   182     15.7   849.3    0.00     734    69.4
 153   10:10   79.6    20    3.6   192     13.9   849.4    0.00     754    69.4
 153   10:20   80.1    18    4.8   182     12.3   849.6    0.00     786    70.3
 153   10:30   80.7    18    4.4   191     12.8   849.7    0.00     801    72.2
 153   10:40   81.2    17    5.7   179     14.3   849.8    0.00     825    73.2
 153   10:50   81.5    17    5.3   176     14.9   849.8    0.00     846    73.5
 153   11:00   82.1    16    5.2   187     12.0   849.8    0.00     848    73.6
 153   11:10   82.4    15    7.4   171     17.2   849.7    0.00     846    73.6
 153   11:20   82.4    15    7.3   173     17.0   849.7    0.00     854    73.4
 153   11:30   83.2    14    6.5   183     13.1   849.7    0.00     869    73.2

Return to Milford, Utah graphs page.


Western Regional Climate Center,wrcc@dri.edu